Time;durP1;ratioP1;P1;durP2;ratioP2;P2;SDS_P1;SDS_P2;PMS_P1;PMS_P2;Temp;Humidity;BMP_temperature;BMP_pressure;BME280_temperature;BME280_humidity;BME280_pressure;Samples;Min_cycle;Max_cycle;Signal;HPM_P1;HPM_P2
2022/11/14 00:01:15;;;;;;;63.45;36.92;;;6.50;99.90;;;;;;5083393;28;20051;-85
2022/11/14 00:03:41;;;;;;;65.55;36.58;;;6.50;99.90;;;;;;5099411;28;20087;-81
2022/11/14 00:06:07;;;;;;;64.78;36.72;;;6.50;99.90;;;;;;5083897;28;20051;-83
2022/11/14 00:08:35;;;;;;;69.78;36.25;;;6.60;99.90;;;;;;5066619;28;20056;-84
2022/11/14 00:11:01;;;;;;;65.50;37.42;;;6.60;99.90;;;;;;5085817;28;20593;-81
2022/11/14 00:13:27;;;;;;;58.78;35.00;;;6.60;99.90;;;;;;5088733;28;20130;-81
2022/11/14 00:15:53;;;;;;;66.50;36.13;;;6.70;99.90;;;;;;5065322;28;20438;-82
2022/11/14 00:18:19;;;;;;;63.55;37.47;;;6.60;99.90;;;;;;5051848;28;20367;-85
2022/11/14 00:20:49;;;;;;;61.08;36.78;;;6.60;99.90;;;;;;5098454;28;20045;-84
2022/11/14 00:23:15;;;;;;;63.38;36.22;;;6.60;99.90;;;;;;5066120;28;20115;-79
2022/11/14 00:25:42;;;;;;;58.45;35.33;;;6.60;99.90;;;;;;5093144;28;20185;-86
2022/11/14 00:28:08;;;;;;;56.90;34.25;;;6.60;99.90;;;;;;5077174;28;20355;-84
2022/11/14 00:30:34;;;;;;;58.88;34.28;;;6.70;99.90;;;;;;5086789;28;20063;-81
2022/11/14 00:33:00;;;;;;;56.88;33.47;;;6.70;99.90;;;;;;5063710;28;20044;-82
2022/11/14 00:35:27;;;;;;;58.17;36.28;;;6.70;99.90;;;;;;5081929;28;20036;-79
2022/11/14 00:37:53;;;;;;;57.78;32.78;;;6.70;99.90;;;;;;5068351;28;20511;-82
2022/11/14 00:40:19;;;;;;;60.92;33.53;;;6.60;99.90;;;;;;5085140;28;20028;-83
2022/11/14 00:42:44;;;;;;;55.78;33.70;;;6.70;99.90;;;;;;5065900;28;20414;-82
2022/11/14 00:45:11;;;;;;;60.97;35.20;;;6.70;99.90;;;;;;5065186;28;20040;-80
2022/11/14 00:47:36;;;;;;;59.35;35.58;;;6.80;99.90;;;;;;5079245;28;20050;-81
2022/11/14 00:50:03;;;;;;;56.65;33.00;;;6.70;99.90;;;;;;5068514;28;20115;-81
2022/11/14 00:52:29;;;;;;;55.13;35.33;;;6.80;99.90;;;;;;5100603;28;20123;-86
2022/11/14 00:54:56;;;;;;;57.92;33.95;;;6.80;99.90;;;;;;5084336;28;20135;-84
2022/11/14 00:57:21;;;;;;;57.88;35.08;;;6.70;99.90;;;;;;5086785;28;20117;-80
2022/11/14 00:59:47;;;;;;;57.22;34.70;;;6.80;99.90;;;;;;5085225;28;21394;-81
2022/11/14 01:02:13;;;;;;;56.30;36.13;;;6.70;99.90;;;;;;5069301;28;20044;-82
2022/11/14 01:04:38;;;;;;;60.53;36.78;;;6.90;99.90;;;;;;5116495;27;20043;-82
2022/11/14 01:07:04;;;;;;;57.40;36.85;;;6.80;99.90;;;;;;5074337;28;20068;-81
2022/11/14 01:09:30;;;;;;;61.30;36.55;;;6.80;99.90;;;;;;5085253;28;20067;-81
2022/11/14 01:12:15;;;;;;;58.70;36.15;;;6.80;99.90;;;;;;5091710;28;20123;-81
2022/11/14 01:14:40;;;;;;;66.75;37.88;;;6.80;99.90;;;;;;5091252;28;20464;-81
2022/11/14 01:17:06;;;;;;;60.17;37.08;;;6.80;99.90;;;;;;5089652;28;20051;-80
2022/11/14 01:19:32;;;;;;;59.47;37.75;;;6.90;99.90;;;;;;5102706;28;20032;-80
2022/11/14 01:21:58;;;;;;;58.95;38.60;;;6.70;99.90;;;;;;5084863;28;20032;-84
2022/11/14 01:24:23;;;;;;;63.42;38.53;;;6.80;99.90;;;;;;5084888;28;20044;-83
2022/11/14 01:26:49;;;;;;;60.60;39.35;;;6.80;99.90;;;;;;5087024;28;20055;-82
2022/11/14 01:29:15;;;;;;;64.80;41.35;;;6.80;99.90;;;;;;5065694;28;20067;-83
2022/11/14 01:31:40;;;;;;;67.13;42.47;;;6.80;99.90;;;;;;5086135;28;20055;-83
2022/11/14 01:34:07;;;;;;;69.43;42.33;;;6.80;99.90;;;;;;5103675;28;20485;-82
2022/11/14 01:36:32;;;;;;;66.97;41.92;;;6.70;99.90;;;;;;5081375;28;20119;-84
2022/11/14 01:38:58;;;;;;;71.85;42.88;;;6.80;99.90;;;;;;5113667;27;20124;-83
2022/11/14 01:41:42;;;;;;;71.13;44.50;;;6.80;99.90;;;;;;5067122;28;20468;-84
2022/11/14 01:44:42;;;;;;;69.10;45.37;;;6.80;99.90;;;;;;5088282;28;20103;-85
2022/11/14 01:47:10;;;;;;;67.57;42.72;;;6.70;99.90;;;;;;5082284;28;20051;-82
2022/11/14 01:49:40;;;;;;;70.63;42.90;;;6.70;99.90;;;;;;5084359;28;20143;-80
2022/11/14 01:52:16;;;;;;;73.78;43.65;;;6.60;99.90;;;;;;5087734;28;20131;-84
2022/11/14 01:54:45;;;;;;;68.97;43.53;;;6.50;99.90;;;;;;5069084;28;20491;-81
2022/11/14 01:57:13;;;;;;;78.75;44.17;;;6.50;99.90;;;;;;5079985;28;20066;-81
2022/11/14 01:59:43;;;;;;;71.30;43.63;;;6.40;99.90;;;;;;5087045;28;20055;-82
2022/11/14 02:02:15;;;;;;;75.63;45.05;;;6.50;99.90;;;;;;5084583;28;20028;-82
2022/11/14 02:04:49;;;;;;;77.60;45.03;;;6.60;99.90;;;;;;5083914;28;20040;-82
2022/11/14 02:07:16;;;;;;;77.95;47.65;;;6.50;99.90;;;;;;5100032;28;20114;-83
2022/11/14 02:09:45;;;;;;;82.13;49.38;;;6.60;99.90;;;;;;5065426;28;20051;-81
2022/11/14 02:12:14;;;;;;;80.55;47.75;;;6.40;99.90;;;;;;5088346;28;20051;-80
2022/11/14 02:14:44;;;;;;;80.60;47.88;;;6.40;99.90;;;;;;5071921;28;20035;-83
2022/11/14 02:17:10;;;;;;;80.63;46.63;;;6.50;99.90;;;;;;5070891;28;20514;-83
2022/11/14 02:19:45;;;;;;;82.45;48.47;;;6.40;99.90;;;;;;5071973;28;20046;-81
2022/11/14 02:22:10;;;;;;;;;;;6.60;99.90;;;;;;5102292;28;20116;-83
2022/11/14 02:24:36;;;;;;;83.40;50.83;;;6.40;99.90;;;;;;5105289;28;19998;-79
2022/11/14 02:27:04;;;;;;;82.25;48.17;;;6.50;99.90;;;;;;5069698;28;20539;-82
2022/11/14 02:29:32;;;;;;;89.45;51.42;;;6.40;99.90;;;;;;5132109;27;20071;-81
2022/11/14 02:31:58;;;;;;;81.28;47.33;;;6.40;99.90;;;;;;5075159;28;20047;-82
2022/11/14 02:34:24;;;;;;;88.00;48.20;;;6.50;99.90;;;;;;5093145;28;20039;-82
2022/11/14 02:36:50;;;;;;;83.88;48.38;;;6.50;99.90;;;;;;5126917;27;20445;-82
2022/11/14 02:39:15;;;;;;;85.35;48.83;;;6.40;99.90;;;;;;5126180;27;20036;-81
2022/11/14 02:41:41;;;;;;;85.38;47.38;;;6.50;99.90;;;;;;5092672;28;20044;-84
2022/11/14 02:44:07;;;;;;;88.90;47.72;;;6.40;99.90;;;;;;5068848;28;20051;-85
2022/11/14 02:46:33;;;;;;;90.07;46.95;;;6.50;99.90;;;;;;5087733;28;20032;-84
2022/11/14 02:48:58;;;;;;;89.43;48.15;;;6.40;99.90;;;;;;5066025;28;20137;-82
2022/11/14 02:51:24;;;;;;;89.80;47.05;;;6.50;99.90;;;;;;5071551;28;20079;-82
2022/11/14 02:53:49;;;;;;;83.78;48.33;;;6.60;99.90;;;;;;5087764;28;20086;-83
2022/11/14 02:56:15;;;;;;;95.47;49.78;;;6.40;99.90;;;;;;5086195;28;20134;-85
2022/11/14 02:58:41;;;;;;;93.88;48.78;;;6.60;99.90;;;;;;5086909;28;20044;-82
2022/11/14 03:01:07;;;;;;;94.72;49.38;;;6.60;99.90;;;;;;5070676;28;20139;-83
2022/11/14 03:03:32;;;;;;;90.88;48.72;;;6.60;99.90;;;;;;5068242;28;20028;-82
2022/11/14 03:06:03;;;;;;;88.47;48.95;;;6.70;99.90;;;;;;5086162;28;20036;-83
2022/11/14 03:08:28;;;;;;;85.47;46.50;;;6.60;99.90;;;;;;5088410;28;20071;-87
2022/11/14 03:10:55;;;;;;;90.65;48.35;;;6.70;99.90;;;;;;5071661;28;20384;-84
2022/11/14 03:13:21;;;;;;;92.22;49.90;;;6.60;99.90;;;;;;5069573;28;20086;-83
2022/11/14 03:15:47;;;;;;;95.13;47.97;;;6.60;99.90;;;;;;5087661;28;20104;-84
2022/11/14 03:18:12;;;;;;;85.13;49.20;;;6.70;99.90;;;;;;5086982;28;20139;-82
2022/11/14 03:20:38;;;;;;;89.75;48.95;;;6.70;99.90;;;;;;5087288;28;20044;-84
2022/11/14 03:23:04;;;;;;;87.57;48.15;;;6.60;99.90;;;;;;5102260;27;20383;-82
2022/11/14 03:25:29;;;;;;;93.75;49.78;;;6.60;99.90;;;;;;5075611;28;20128;-82
2022/11/14 03:27:55;;;;;;;89.43;49.10;;;6.60;99.90;;;;;;5098760;27;20032;-82
2022/11/14 03:30:21;;;;;;;85.45;48.92;;;6.80;99.90;;;;;;5085916;28;20426;-82
2022/11/14 03:32:46;;;;;;;85.35;48.30;;;6.80;99.90;;;;;;5116867;27;20040;-83
2022/11/14 03:35:12;;;;;;;86.25;49.75;;;6.70;99.90;;;;;;5122230;27;20067;-80
2022/11/14 03:37:38;;;;;;;89.45;51.60;;;6.70;99.90;;;;;;5074904;28;20033;-85
2022/11/14 03:40:04;;;;;;;85.15;49.30;;;6.60;99.90;;;;;;5084034;28;20044;-85
2022/11/14 03:42:34;;;;;;;91.45;50.65;;;6.80;99.90;;;;;;5089772;28;20052;-82
2022/11/14 03:45:00;;;;;;;85.35;50.05;;;6.60;99.90;;;;;;5087505;28;20032;-86
2022/11/14 03:47:26;;;;;;;84.30;48.08;;;6.80;99.90;;;;;;5082658;28;20036;-82
2022/11/14 03:49:51;;;;;;;87.13;51.92;;;6.70;99.90;;;;;;5088265;28;20042;-82
2022/11/14 03:52:17;;;;;;;85.75;47.92;;;6.70;99.90;;;;;;5071837;28;20040;-85
2022/11/14 03:54:43;;;;;;;82.30;47.55;;;6.70;99.90;;;;;;5101899;27;20446;-84
2022/11/14 03:57:08;;;;;;;83.85;49.13;;;6.70;99.90;;;;;;5092600;28;20040;-82
2022/11/14 03:59:34;;;;;;;85.20;49.75;;;6.70;99.90;;;;;;5076239;28;20048;-84
2022/11/14 04:01:59;;;;;;;73.68;45.55;;;6.70;99.90;;;;;;5086715;28;20047;-83
2022/11/14 04:04:25;;;;;;;81.05;47.47;;;6.70;99.90;;;;;;5091597;28;20040;-81
2022/11/14 04:06:51;;;;;;;84.80;49.95;;;6.70;99.90;;;;;;5123686;27;20085;-83
2022/11/14 04:09:17;;;;;;;84.78;47.67;;;6.80;99.90;;;;;;5086552;28;20048;-84
2022/11/14 04:11:42;;;;;;;81.22;47.80;;;6.70;99.90;;;;;;5087799;28;20154;-84
2022/11/14 04:14:08;;;;;;;77.55;46.92;;;6.70;99.90;;;;;;5070776;28;20047;-81
2022/11/14 04:16:34;;;;;;;81.45;48.10;;;6.80;99.90;;;;;;5087592;28;20044;-82
2022/11/14 04:19:00;;;;;;;76.45;47.88;;;6.70;99.90;;;;;;5126011;27;20040;-81
2022/11/14 04:21:26;;;;;;;79.00;45.00;;;6.70;99.90;;;;;;5125422;27;20067;-82
2022/11/14 04:23:51;;;;;;;77.18;44.17;;;6.70;99.90;;;;;;5092505;28;20048;-82
2022/11/14 04:26:17;;;;;;;74.03;44.53;;;6.70;99.90;;;;;;5092501;28;20036;-82
2022/11/14 04:28:42;;;;;;;71.28;44.10;;;6.60;99.90;;;;;;5074129;28;20463;-82
2022/11/14 04:31:08;;;;;;;74.22;44.00;;;6.50;99.90;;;;;;5071183;28;20059;-82
2022/11/14 04:33:34;;;;;;;75.10;44.22;;;6.60;99.90;;;;;;5090434;28;20463;-82
2022/11/14 04:35:59;;;;;;;71.53;42.95;;;6.60;99.90;;;;;;5071957;28;20040;-82
2022/11/14 04:38:25;;;;;;;76.68;44.67;;;6.60;99.90;;;;;;5076061;28;20068;-81
2022/11/14 04:40:51;;;;;;;71.63;42.17;;;6.70;99.90;;;;;;5080304;28;20043;-81
2022/11/14 04:43:18;;;;;;;70.55;45.88;;;6.70;99.90;;;;;;5097019;28;20059;-81
2022/11/14 04:45:44;;;;;;;71.03;42.13;;;6.60;99.90;;;;;;5096657;28;20086;-83
2022/11/14 04:48:10;;;;;;;71.28;42.08;;;6.80;99.90;;;;;;5122099;27;20044;-84
2022/11/14 04:50:35;;;;;;;69.97;41.58;;;6.60;99.90;;;;;;5067963;28;20074;-82
2022/11/14 04:53:01;;;;;;;67.63;43.30;;;6.70;99.90;;;;;;5108076;28;20036;-84
2022/11/14 04:55:27;;;;;;;69.15;43.03;;;6.60;99.90;;;;;;5093929;28;20032;-83
2022/11/14 04:57:56;;;;;;;70.95;43.15;;;6.70;99.90;;;;;;5120128;27;20040;-82
2022/11/14 05:00:23;;;;;;;65.43;42.13;;;6.50;99.90;;;;;;5090071;28;20077;-85
2022/11/14 05:02:49;;;;;;;69.90;41.67;;;6.60;99.90;;;;;;5085817;28;20135;-81
2022/11/14 05:05:15;;;;;;;70.07;41.75;;;6.70;99.90;;;;;;5084643;28;20055;-81
2022/11/14 05:07:41;;;;;;;69.03;41.97;;;6.50;99.90;;;;;;5068860;28;20113;-83
2022/11/14 05:10:08;;;;;;;66.43;40.92;;;6.50;99.90;;;;;;5072672;28;20043;-83
2022/11/14 05:12:34;;;;;;;67.07;41.40;;;6.60;99.90;;;;;;5123841;27;20035;-81
2022/11/14 05:14:59;;;;;;;65.60;40.63;;;6.70;99.90;;;;;;5125247;27;20046;-84
2022/11/14 05:17:26;;;;;;;67.97;41.85;;;6.60;99.90;;;;;;5121632;27;20046;-83
2022/11/14 05:19:52;;;;;;;63.40;39.22;;;6.60;99.90;;;;;;5120853;27;20495;-83
2022/11/14 05:22:17;;;;;;;68.65;41.50;;;6.50;99.90;;;;;;5090534;28;20036;-82
2022/11/14 05:24:43;;;;;;;66.32;41.22;;;6.60;99.90;;;;;;5089942;28;20032;-81
2022/11/14 05:30:49;;;;;;;72.22;41.45;;;6.50;99.90;;;;;;5082370;28;20101;-80
2022/11/14 05:33:15;;;;;;;73.15;43.78;;;6.50;99.90;;;;;;5076242;28;20151;-81
2022/11/14 05:35:41;;;;;;;69.85;43.03;;;6.60;99.90;;;;;;5089308;28;20032;-80
2022/11/14 05:38:06;;;;;;;69.03;42.60;;;6.50;99.90;;;;;;5100808;28;20044;-82
2022/11/14 05:40:32;;;;;;;70.22;42.63;;;6.50;99.90;;;;;;5088344;28;20057;-83
2022/11/14 05:42:58;;;;;;;74.82;43.20;;;6.50;99.90;;;;;;5069002;28;20105;-81
2022/11/14 05:45:23;;;;;;;71.75;44.17;;;6.40;99.90;;;;;;5082937;28;20468;-81
2022/11/14 05:47:52;;;;;;;72.85;43.15;;;6.50;99.90;;;;;;5087329;28;20522;-83
2022/11/14 05:50:18;;;;;;;73.07;43.45;;;6.40;99.90;;;;;;5067046;28;20075;-83
2022/11/14 05:52:44;;;;;;;68.85;43.70;;;6.40;99.90;;;;;;5086350;28;20449;-86
2022/11/14 05:55:09;;;;;;;67.25;41.28;;;6.40;99.90;;;;;;5087808;28;20512;-81
2022/11/14 05:57:57;;;;;;;72.38;43.90;;;6.40;99.90;;;;;;5091229;28;20405;-83
2022/11/14 06:00:23;;;;;;;68.38;40.80;;;6.40;99.90;;;;;;5105582;28;20034;-81
2022/11/14 06:02:55;;;;;;;71.57;40.90;;;6.30;99.90;;;;;;5083977;28;20477;-84
2022/11/14 06:05:21;;;;;;;77.55;44.22;;;6.30;99.90;;;;;;5120150;27;20055;-83
2022/11/14 06:07:53;;;;;;;77.35;43.35;;;6.20;99.90;;;;;;5123283;27;20051;-82
2022/11/14 06:10:19;;;;;;;74.93;42.92;;;6.40;99.90;;;;;;5078439;28;20024;-84
2022/11/14 06:12:44;;;;;;;73.00;43.42;;;6.30;99.90;;;;;;5103511;27;20056;-81
2022/11/14 06:15:10;;;;;;;76.65;43.05;;;6.30;99.90;;;;;;5070641;28;20051;-81
2022/11/14 06:17:36;;;;;;;74.25;41.78;;;6.40;99.90;;;;;;5088321;28;20375;-82
2022/11/14 06:20:01;;;;;;;72.82;42.60;;;6.30;99.90;;;;;;5091262;28;20082;-83
2022/11/14 06:22:27;;;;;;;70.07;41.78;;;6.30;99.90;;;;;;5124340;27;20064;-83
2022/11/14 06:24:52;;;;;;;70.25;40.63;;;6.20;99.90;;;;;;5083641;28;20108;-81
2022/11/14 06:27:18;;;;;;;72.47;40.53;;;6.20;99.90;;;;;;5092446;28;20086;-83
2022/11/14 06:29:44;;;;;;;79.72;42.53;;;6.10;99.90;;;;;;5089506;28;20070;-84
2022/11/14 06:32:09;;;;;;;76.20;42.53;;;6.20;99.90;;;;;;5105742;28;20078;-80
2022/11/14 06:34:35;;;;;;;77.28;42.58;;;6.10;99.90;;;;;;5091292;28;20040;-81
2022/11/14 06:37:01;;;;;;;80.03;42.50;;;6.10;99.90;;;;;;5108223;28;20055;-78
2022/11/14 06:39:26;;;;;;;75.50;41.83;;;6.10;99.90;;;;;;5134171;27;20490;-81
2022/11/14 06:41:52;;;;;;;78.68;42.53;;;6.20;99.90;;;;;;5097898;28;20063;-83
2022/11/14 06:44:18;;;;;;;79.93;43.10;;;6.00;99.90;;;;;;5093635;28;20047;-83
2022/11/14 06:46:43;;;;;;;85.53;44.03;;;6.10;99.90;;;;;;5088949;28;20064;-83
2022/11/14 06:49:09;;;;;;;81.32;43.92;;;6.20;99.90;;;;;;5073621;28;20150;-82
2022/11/14 06:51:35;;;;;;;79.13;43.33;;;6.10;99.90;;;;;;5090869;28;20402;-82
2022/11/14 06:54:00;;;;;;;79.15;43.20;;;6.10;99.90;;;;;;5112817;27;20037;-80
2022/11/14 06:56:26;;;;;;;80.10;43.90;;;6.20;99.90;;;;;;5123231;27;20044;-81
2022/11/14 06:58:52;;;;;;;79.80;44.15;;;6.20;99.90;;;;;;5063940;28;20420;-85
2022/11/14 07:01:22;;;;;;;79.32;41.80;;;6.10;99.90;;;;;;5075682;28;20040;-84
2022/11/14 07:03:49;;;;;;;83.70;43.80;;;6.00;99.90;;;;;;5116776;27;20145;-84
2022/11/14 07:06:17;;;;;;;82.00;43.55;;;6.00;99.90;;;;;;5089837;28;20047;-84
2022/11/14 07:08:43;;;;;;;84.05;44.05;;;6.00;99.90;;;;;;5088480;28;20127;-82
2022/11/14 07:11:24;;;;;;;82.97;42.78;;;6.00;99.90;;;;;;5095232;28;20162;-81
2022/11/14 07:14:01;;;;;;;74.40;40.42;;;6.00;99.90;;;;;;5105583;28;20113;-84
2022/11/14 07:16:29;;;;;;;77.88;40.65;;;6.00;99.90;;;;;;5100261;28;20463;-85
2022/11/14 07:18:56;;;;;;;83.00;43.13;;;5.90;99.90;;;;;;5086461;28;20545;-82
2022/11/14 07:21:22;;;;;;;73.53;38.47;;;5.90;99.90;;;;;;5092333;28;20032;-80
2022/11/14 07:23:48;;;;;;;76.63;41.65;;;5.80;99.90;;;;;;5087487;28;20036;-81
2022/11/14 07:26:14;;;;;;;81.45;42.03;;;5.90;99.90;;;;;;5070118;28;20044;-82
2022/11/14 07:28:42;;;;;;;79.15;42.03;;;5.90;99.90;;;;;;5084066;28;21066;-81
2022/11/14 07:31:13;;;;;;;78.57;41.35;;;5.90;99.90;;;;;;5068089;28;20055;-83
2022/11/14 07:33:40;;;;;;;80.65;43.65;;;6.00;99.90;;;;;;5072930;28;20555;-80
2022/11/14 07:36:07;;;;;;;86.60;44.45;;;6.00;99.90;;;;;;5084926;28;20182;-84
2022/11/14 07:38:34;;;;;;;90.22;43.78;;;5.90;99.90;;;;;;5087354;28;20518;-82
2022/11/14 07:41:07;;;;;;;83.75;44.30;;;5.80;99.90;;;;;;5088144;28;20036;-82
2022/11/14 07:43:52;;;;;;;82.75;43.15;;;5.80;99.90;;;;;;5089078;28;20048;-83
2022/11/14 07:46:18;;;;;;;76.57;40.53;;;5.80;99.90;;;;;;5116418;27;20032;-85
2022/11/14 07:48:44;;;;;;;81.18;42.33;;;6.00;99.90;;;;;;5071009;28;20114;-82
2022/11/14 07:51:19;;;;;;;80.22;42.00;;;5.80;99.90;;;;;;5087567;28;20056;-83
2022/11/14 07:53:45;;;;;;;84.78;42.08;;;5.90;99.90;;;;;;5072714;28;20044;-82
2022/11/14 07:56:11;;;;;;;79.72;40.47;;;5.80;99.90;;;;;;5074567;28;20049;-84
2022/11/14 07:58:39;;;;;;;79.60;40.53;;;5.80;99.90;;;;;;5109754;28;20202;-82
2022/11/14 08:01:08;;;;;;;78.03;41.40;;;5.90;99.90;;;;;;5082458;28;20054;-83
2022/11/14 08:03:34;;;;;;;77.45;40.00;;;6.00;99.90;;;;;;5115730;27;20036;-83
2022/11/14 08:06:08;;;;;;;79.57;41.03;;;5.90;99.90;;;;;;5109877;28;20048;-85
2022/11/14 08:08:34;;;;;;;76.37;41.37;;;5.80;99.90;;;;;;5093037;28;20071;-82
2022/11/14 08:11:03;;;;;;;81.10;42.25;;;5.90;99.90;;;;;;5096249;28;20044;-79
2022/11/14 08:13:30;;;;;;;84.10;40.80;;;6.00;99.90;;;;;;5080219;28;20332;-81
2022/11/14 08:15:58;;;;;;;79.53;41.30;;;5.90;99.90;;;;;;5091320;28;20048;-83
2022/11/14 08:18:24;;;;;;;78.63;41.75;;;6.00;99.90;;;;;;5068096;28;20051;-82
2022/11/14 08:20:50;;;;;;;74.95;39.47;;;6.00;99.90;;;;;;5118149;27;20052;-79
2022/11/14 08:23:16;;;;;;;70.25;39.42;;;6.00;99.90;;;;;;5086490;28;20040;-83
2022/11/14 08:25:41;;;;;;;75.93;41.03;;;6.00;99.90;;;;;;5082848;28;20380;-85
2022/11/14 08:28:08;;;;;;;76.30;40.75;;;5.90;99.90;;;;;;5103122;28;20044;-82
2022/11/14 08:30:34;;;;;;;72.85;39.90;;;6.00;99.90;;;;;;5088095;28;20051;-84
2022/11/14 08:33:02;;;;;;;72.85;39.40;;;5.90;99.90;;;;;;5090120;28;20036;-84
2022/11/14 08:35:28;;;;;;;76.70;40.03;;;6.10;99.90;;;;;;5069959;28;20063;-84
2022/11/14 08:37:54;;;;;;;73.55;39.10;;;6.00;99.90;;;;;;5069121;28;20124;-85
2022/11/14 08:40:19;;;;;;;80.32;40.88;;;6.10;99.90;;;;;;5095782;28;20131;-83
2022/11/14 08:42:45;;;;;;;78.20;38.70;;;6.20;99.90;;;;;;5090695;28;20060;-82
2022/11/14 08:45:11;;;;;;;86.28;39.78;;;6.30;99.90;;;;;;5118683;27;20461;-80
2022/11/14 08:47:36;;;;;;;80.85;39.97;;;6.40;99.90;;;;;;5068250;28;20043;-82
2022/11/14 08:50:05;;;;;;;74.40;39.83;;;6.40;99.90;;;;;;5111809;27;20136;-80
2022/11/14 08:52:31;;;;;;;66.82;36.30;;;6.20;99.90;;;;;;5091164;28;20066;-81
2022/11/14 08:54:56;;;;;;;72.47;39.65;;;6.40;99.90;;;;;;5088695;28;20297;-80
2022/11/14 08:57:22;;;;;;;71.82;39.45;;;6.30;99.90;;;;;;5082277;28;20048;-79
2022/11/14 08:59:48;;;;;;;72.63;40.45;;;6.50;99.90;;;;;;5097663;28;20047;-81
2022/11/14 09:02:14;;;;;;;73.90;40.28;;;6.40;99.90;;;;;;5085029;28;20070;-83
2022/11/14 09:04:39;;;;;;;75.60;40.83;;;6.30;99.90;;;;;;5071945;28;20036;-82
2022/11/14 09:07:05;;;;;;;73.38;39.22;;;6.40;99.90;;;;;;5082484;28;20044;-81
2022/11/14 09:09:31;;;;;;;67.80;39.72;;;6.40;99.90;;;;;;5086027;28;20501;-78
2022/11/14 09:11:58;;;;;;;68.45;40.10;;;6.30;99.90;;;;;;5067937;28;20120;-81
2022/11/14 09:14:24;;;;;;;72.10;37.60;;;6.40;99.90;;;;;;5068986;28;20161;-83
2022/11/14 09:16:49;;;;;;;69.82;39.45;;;6.40;99.90;;;;;;5067142;28;20126;-82
2022/11/14 09:19:15;;;;;;;71.35;39.40;;;6.50;99.90;;;;;;5085126;28;20048;-78
2022/11/14 09:21:41;;;;;;;68.40;39.97;;;6.60;99.90;;;;;;5085985;28;20119;-79
2022/11/14 09:24:07;;;;;;;67.45;39.67;;;6.40;99.90;;;;;;5089425;28;20036;-82
2022/11/14 09:26:33;;;;;;;66.82;38.67;;;6.60;99.90;;;;;;5085801;28;20080;-76
2022/11/14 09:29:00;;;;;;;65.78;38.70;;;6.60;99.90;;;;;;5087647;28;20052;-80
2022/11/14 09:31:27;;;;;;;67.63;38.17;;;6.50;99.90;;;;;;5118442;27;20055;-81
2022/11/14 09:33:53;;;;;;;66.28;39.58;;;6.60;99.90;;;;;;5118353;27;20154;-82
2022/11/14 09:36:19;;;;;;;68.15;37.30;;;6.60;99.90;;;;;;5090467;28;20878;-83
2022/11/14 09:38:45;;;;;;;65.32;38.95;;;6.70;99.90;;;;;;5072505;28;20052;-85
2022/11/14 09:41:25;;;;;;;64.25;38.22;;;6.60;99.90;;;;;;5084722;28;20043;-78
2022/11/14 09:43:54;;;;;;;69.40;40.63;;;6.90;99.90;;;;;;5099990;28;20059;-81
2022/11/14 09:46:26;;;;;;;67.68;38.63;;;6.90;99.90;;;;;;5067696;28;20055;-80
2022/11/14 09:48:54;;;;;;;65.40;38.78;;;6.90;99.90;;;;;;5088648;28;20067;-87
2022/11/14 09:51:23;;;;;;;62.33;37.70;;;6.90;99.90;;;;;;5088559;28;20151;-83
2022/11/14 09:54:10;;;;;;;64.53;37.35;;;6.90;99.90;;;;;;5089515;28;20088;-79
2022/11/14 09:56:37;;;;;;;71.25;39.38;;;6.80;99.90;;;;;;5089328;28;20055;-81
2022/11/14 09:59:03;;;;;;;65.30;37.30;;;6.90;99.90;;;;;;5089227;28;20048;-78
2022/11/14 10:01:54;;;;;;;66.18;39.67;;;7.00;99.90;;;;;;5066290;28;20100;-80
2022/11/14 10:04:43;;;;;;;62.67;37.63;;;6.80;99.90;;;;;;5089482;28;20483;-85
2022/11/14 10:07:23;;;;;;;63.00;36.05;;;6.80;99.90;;;;;;5119122;27;20063;-80
2022/11/14 10:10:10;;;;;;;62.65;38.40;;;6.90;99.90;;;;;;5088695;28;20078;-80
2022/11/14 10:13:03;;;;;;;61.80;38.22;;;6.80;99.90;;;;;;5086807;28;20048;-80
2022/11/14 10:16:09;;;;;;;57.00;35.00;;;6.80;99.90;;;;;;5076100;28;20040;-83
2022/11/14 10:18:57;;;;;;;58.58;36.85;;;6.90;99.90;;;;;;5084858;28;20039;-83
2022/11/14 10:21:32;;;;;;;60.53;38.60;;;7.00;99.90;;;;;;5118618;27;20147;-82
2022/11/14 10:24:19;;;;;;;64.82;37.28;;;7.00;99.90;;;;;;5068872;28;20043;-84
2022/11/14 10:27:08;;;;;;;61.63;36.60;;;7.10;99.90;;;;;;5085986;28;20067;-83
2022/11/14 10:29:49;;;;;;;57.72;37.10;;;7.10;99.90;;;;;;5090243;28;20127;-84
2022/11/14 10:32:47;;;;;;;59.42;36.47;;;6.90;99.90;;;;;;5095046;28;20142;-83
2022/11/14 10:35:33;;;;;;;57.92;35.88;;;7.00;99.90;;;;;;5060940;28;20930;-84
2022/11/14 10:38:17;;;;;;;58.22;36.33;;;7.10;99.90;;;;;;5090826;28;20098;-83
2022/11/14 10:40:57;;;;;;;66.57;35.17;;;7.20;99.90;;;;;;5072358;28;20047;-84
2022/11/14 10:43:31;;;;;;;57.30;35.20;;;7.10;99.90;;;;;;5083234;28;20044;-82
2022/11/14 10:46:11;;;;;;;63.05;37.65;;;7.20;99.90;;;;;;5119782;27;20040;-84
2022/11/14 10:48:48;;;;;;;57.90;37.08;;;7.40;99.90;;;;;;5083784;28;20043;-82
2022/11/14 10:51:21;;;;;;;59.33;36.05;;;7.50;99.90;;;;;;5099273;28;20044;-83
2022/11/14 10:53:58;;;;;;;60.55;36.38;;;7.80;99.90;;;;;;5086294;28;20055;-85
2022/11/14 10:56:25;;;;;;;54.65;34.95;;;8.00;99.90;;;;;;5073102;28;20047;-86
2022/11/14 10:58:51;;;;;;;56.78;34.40;;;8.10;99.90;;;;;;5125673;27;20364;-87
2022/11/14 11:01:34;;;;;;;52.65;33.60;;;8.10;99.90;;;;;;5108471;27;20106;-85
2022/11/14 11:04:16;;;;;;;52.28;33.33;;;7.70;99.90;;;;;;5082619;28;20097;-84
2022/11/14 11:06:42;;;;;;;49.13;32.50;;;7.50;99.90;;;;;;5091350;28;20109;-85
2022/11/14 11:12:07;;;;;;;53.40;33.90;;;7.40;99.90;;;;;;5115379;27;20044;-84
2022/11/14 11:14:34;;;;;;;54.17;34.70;;;7.30;99.90;;;;;;5133412;27;20772;-84
2022/11/14 11:17:19;;;;;;;54.97;34.70;;;7.30;99.90;;;;;;5073457;28;20047;-82
2022/11/14 11:19:49;;;;;;;57.22;34.17;;;7.30;99.90;;;;;;5119790;27;20051;-84
2022/11/14 11:22:34;;;;;;;54.10;33.70;;;7.40;99.90;;;;;;5074312;28;20039;-81
2022/11/14 11:25:00;;;;;;;51.83;33.28;;;7.40;99.90;;;;;;5088936;28;20037;-82
2022/11/14 11:27:28;;;;;;;58.47;35.13;;;7.40;99.90;;;;;;5089595;28;20166;-85
2022/11/14 11:30:18;;;;;;;57.63;34.13;;;7.60;99.90;;;;;;5106306;28;20135;-82
2022/11/14 11:32:44;;;;;;;54.35;34.70;;;7.70;99.90;;;;;;5100162;27;20060;-81
2022/11/14 11:35:15;;;;;;;52.67;34.90;;;7.70;99.90;;;;;;5074186;28;20119;-85
2022/11/14 11:37:47;;;;;;;55.78;34.22;;;7.70;99.90;;;;;;5088117;28;20058;-85
2022/11/14 11:40:17;;;;;;;53.50;34.08;;;7.90;99.90;;;;;;5094154;28;20091;-87
2022/11/14 11:43:02;;;;;;;50.08;33.35;;;7.80;99.90;;;;;;5092773;28;20044;-82
2022/11/14 11:45:31;;;;;;;53.05;34.78;;;8.10;99.90;;;;;;5080291;28;20044;-82
2022/11/14 11:48:02;;;;;;;53.22;33.25;;;8.10;99.90;;;;;;5061890;28;20122;-84
2022/11/14 11:50:29;;;;;;;55.35;35.47;;;8.20;99.90;;;;;;5080842;28;20056;-85
2022/11/14 11:53:13;;;;;;;52.60;34.50;;;8.10;99.90;;;;;;5097937;28;20055;-83
2022/11/14 11:55:44;;;;;;;51.03;32.28;;;8.20;99.90;;;;;;5081488;28;20048;-86
2022/11/14 11:58:31;;;;;;;49.78;33.03;;;8.00;99.90;;;;;;5087338;28;20137;-83
2022/11/14 12:00:57;;;;;;;54.70;32.13;;;8.00;99.90;;;;;;5056673;28;20067;-83
2022/11/14 12:03:24;;;;;;;48.70;32.88;;;8.00;99.90;;;;;;5084874;28;20079;-85
2022/11/14 12:06:05;;;;;;;47.97;32.42;;;7.90;99.90;;;;;;5126173;27;20044;-85
2022/11/14 12:08:50;;;;;;;46.90;30.80;;;7.90;99.90;;;;;;5065944;28;20032;-83
2022/11/14 12:11:23;;;;;;;49.75;31.83;;;7.90;99.90;;;;;;5093369;28;20075;-84
2022/11/14 12:13:59;;;;;;;49.80;30.70;;;8.00;99.90;;;;;;5088125;28;20150;-86
2022/11/14 12:16:32;;;;;;;51.13;31.92;;;7.90;99.90;;;;;;5090779;28;20091;-86
2022/11/14 12:19:12;;;;;;;50.42;31.65;;;8.00;99.90;;;;;;5072057;28;20048;-84
2022/11/14 12:22:10;;;;;;;49.65;31.17;;;7.90;99.90;;;;;;5089346;28;20436;-85
2022/11/14 12:24:57;;;;;;;45.67;30.90;;;8.10;99.90;;;;;;5072979;28;20040;-85
2022/11/14 12:27:57;;;;;;;47.60;30.60;;;8.20;99.90;;;;;;5070573;28;20063;-82
2022/11/14 12:31:01;;;;;;;49.00;30.60;;;8.10;99.90;;;;;;5081508;28;20419;-86
2022/11/14 12:33:32;;;;;;;46.30;31.60;;;8.20;99.90;;;;;;5092161;28;20540;-84
2022/11/14 12:36:05;;;;;;;46.58;31.27;;;8.20;99.90;;;;;;5073448;28;20490;-84
2022/11/14 12:38:42;;;;;;;49.22;31.13;;;8.30;99.90;;;;;;5106853;28;20033;-82
2022/11/14 12:41:08;;;;;;;48.33;32.58;;;8.30;99.90;;;;;;5089121;28;20094;-86
2022/11/14 12:43:41;;;;;;;48.85;31.23;;;8.40;99.90;;;;;;5057406;28;20052;-86
2022/11/14 12:46:22;;;;;;;46.28;30.38;;;8.40;99.90;;;;;;5105688;28;20048;-81
2022/11/14 12:48:49;;;;;;;51.85;30.92;;;8.40;99.90;;;;;;5123409;27;20056;-82
2022/11/14 12:51:24;;;;;;;46.42;30.83;;;8.40;99.90;;;;;;5073961;28;20074;-84
2022/11/14 12:53:50;;;;;;;46.60;29.85;;;8.40;99.90;;;;;;5068193;28;20056;-84
2022/11/14 12:56:57;;;;;;;46.63;30.35;;;8.40;99.90;;;;;;5082267;28;20044;-83